sensor_id;sensor_type;location;lat;lon;timestamp;temperature;humidity
52709;DHT22;38606;52.986;6.980;2023-08-17T00:01:55;16.80;99.90
52709;DHT22;38606;52.986;6.980;2023-08-17T00:04:22;16.80;99.90
52709;DHT22;38606;52.986;6.980;2023-08-17T00:06:47;16.80;99.90
52709;DHT22;38606;52.986;6.980;2023-08-17T00:09:13;16.70;99.90
52709;DHT22;38606;52.986;6.980;2023-08-17T00:11:39;16.60;99.90
52709;DHT22;38606;52.986;6.980;2023-08-17T00:14:05;16.80;99.90
52709;DHT22;38606;52.986;6.980;2023-08-17T00:16:31;16.90;99.90
52709;DHT22;38606;52.986;6.980;2023-08-17T00:18:57;16.80;99.90
52709;DHT22;38606;52.986;6.980;2023-08-17T00:21:23;16.80;99.90
52709;DHT22;38606;52.986;6.980;2023-08-17T00:23:48;17.10;99.90
52709;DHT22;38606;52.986;6.980;2023-08-17T00:26:14;16.80;99.90
52709;DHT22;38606;52.986;6.980;2023-08-17T00:28:40;16.80;99.90
52709;DHT22;38606;52.986;6.980;2023-08-17T00:31:06;16.90;99.90
52709;DHT22;38606;52.986;6.980;2023-08-17T00:33:32;16.80;99.90
52709;DHT22;38606;52.986;6.980;2023-08-17T00:35:58;17.10;99.90
52709;DHT22;38606;52.986;6.980;2023-08-17T00:38:24;16.50;99.90
52709;DHT22;38606;52.986;6.980;2023-08-17T00:40:50;16.90;99.90
52709;DHT22;38606;52.986;6.980;2023-08-17T00:43:15;16.90;99.90
52709;DHT22;38606;52.986;6.980;2023-08-17T00:45:41;16.70;99.90
52709;DHT22;38606;52.986;6.980;2023-08-17T00:48:08;16.70;99.90
52709;DHT22;38606;52.986;6.980;2023-08-17T00:50:35;16.90;99.90
52709;DHT22;38606;52.986;6.980;2023-08-17T00:53:03;16.80;99.90
52709;DHT22;38606;52.986;6.980;2023-08-17T00:55:28;17.10;99.90
52709;DHT22;38606;52.986;6.980;2023-08-17T00:57:56;16.90;99.90
52709;DHT22;38606;52.986;6.980;2023-08-17T01:00:24;16.30;99.90
52709;DHT22;38606;52.986;6.980;2023-08-17T01:02:51;17.40;99.90
52709;DHT22;38606;52.986;6.980;2023-08-17T01:05:17;17.40;99.90
52709;DHT22;38606;52.986;6.980;2023-08-17T01:07:42;16.60;99.90
52709;DHT22;38606;52.986;6.980;2023-08-17T01:10:09;16.60;99.90
52709;DHT22;38606;52.986;6.980;2023-08-17T01:15:27;16.60;99.90
52709;DHT22;38606;52.986;6.980;2023-08-17T01:20:43;16.80;99.90
52709;DHT22;38606;52.986;6.980;2023-08-17T01:23:09;16.70;99.90
52709;DHT22;38606;52.986;6.980;2023-08-17T01:25:35;16.30;99.90
52709;DHT22;38606;52.986;6.980;2023-08-17T01:28:05;16.40;99.90
52709;DHT22;38606;52.986;6.980;2023-08-17T01:33:09;16.30;99.90
52709;DHT22;38606;52.986;6.980;2023-08-17T01:35:45;16.50;99.90
52709;DHT22;38606;52.986;6.980;2023-08-17T01:38:16;16.70;99.90
52709;DHT22;38606;52.986;6.980;2023-08-17T01:40:42;16.50;99.90
52709;DHT22;38606;52.986;6.980;2023-08-17T01:43:11;17.00;99.90
52709;DHT22;38606;52.986;6.980;2023-08-17T01:45:37;16.50;99.90
52709;DHT22;38606;52.986;6.980;2023-08-17T01:48:03;14.60;99.90
52709;DHT22;38606;52.986;6.980;2023-08-17T01:50:29;17.20;99.90
52709;DHT22;38606;52.986;6.980;2023-08-17T01:52:55;16.70;99.90
52709;DHT22;38606;52.986;6.980;2023-08-17T01:55:21;16.50;99.90
52709;DHT22;38606;52.986;6.980;2023-08-17T01:57:50;16.60;99.90
52709;DHT22;38606;52.986;6.980;2023-08-17T02:00:16;16.70;99.90
52709;DHT22;38606;52.986;6.980;2023-08-17T02:02:41;16.80;99.90
52709;DHT22;38606;52.986;6.980;2023-08-17T02:05:08;16.70;99.90
52709;DHT22;38606;52.986;6.980;2023-08-17T02:07:33;16.80;99.90
52709;DHT22;38606;52.986;6.980;2023-08-17T02:09:59;16.80;99.90
52709;DHT22;38606;52.986;6.980;2023-08-17T02:12:25;16.30;99.90
52709;DHT22;38606;52.986;6.980;2023-08-17T02:14:50;16.70;99.90
52709;DHT22;38606;52.986;6.980;2023-08-17T02:17:16;16.70;99.90
52709;DHT22;38606;52.986;6.980;2023-08-17T02:19:44;16.60;99.90
52709;DHT22;38606;52.986;6.980;2023-08-17T02:22:10;16.30;99.90
52709;DHT22;38606;52.986;6.980;2023-08-17T02:24:36;16.60;99.90
52709;DHT22;38606;52.986;6.980;2023-08-17T02:27:01;16.60;99.90
52709;DHT22;38606;52.986;6.980;2023-08-17T02:29:27;16.70;99.90
52709;DHT22;38606;52.986;6.980;2023-08-17T02:31:53;16.70;99.90
52709;DHT22;38606;52.986;6.980;2023-08-17T02:34:19;16.60;99.90
52709;DHT22;38606;52.986;6.980;2023-08-17T02:36:44;16.80;99.90
52709;DHT22;38606;52.986;6.980;2023-08-17T02:39:10;16.60;99.90
52709;DHT22;38606;52.986;6.980;2023-08-17T02:41:36;16.80;99.90
52709;DHT22;38606;52.986;6.980;2023-08-17T02:44:01;16.40;99.90
52709;DHT22;38606;52.986;6.980;2023-08-17T02:46:27;16.70;99.90
52709;DHT22;38606;52.986;6.980;2023-08-17T02:48:53;16.80;99.90
52709;DHT22;38606;52.986;6.980;2023-08-17T02:51:19;16.70;99.90
52709;DHT22;38606;52.986;6.980;2023-08-17T02:53:44;16.70;99.90
52709;DHT22;38606;52.986;6.980;2023-08-17T02:56:10;16.80;99.90
52709;DHT22;38606;52.986;6.980;2023-08-17T02:58:40;16.60;99.90
52709;DHT22;38606;52.986;6.980;2023-08-17T03:01:07;16.90;99.90
52709;DHT22;38606;52.986;6.980;2023-08-17T03:03:33;16.80;99.90
52709;DHT22;38606;52.986;6.980;2023-08-17T03:05:59;16.60;99.90
52709;DHT22;38606;52.986;6.980;2023-08-17T03:08:25;16.50;99.90
52709;DHT22;38606;52.986;6.980;2023-08-17T03:10:50;16.90;99.90
52709;DHT22;38606;52.986;6.980;2023-08-17T03:13:16;16.60;99.90
52709;DHT22;38606;52.986;6.980;2023-08-17T03:15:42;16.60;99.90
52709;DHT22;38606;52.986;6.980;2023-08-17T03:18:07;16.70;99.90
52709;DHT22;38606;52.986;6.980;2023-08-17T03:20:33;16.90;99.90
52709;DHT22;38606;52.986;6.980;2023-08-17T03:22:59;16.90;99.90
52709;DHT22;38606;52.986;6.980;2023-08-17T03:25:24;16.60;99.90
52709;DHT22;38606;52.986;6.980;2023-08-17T03:27:50;16.50;99.90
52709;DHT22;38606;52.986;6.980;2023-08-17T03:30:16;16.40;99.90
52709;DHT22;38606;52.986;6.980;2023-08-17T03:32:41;17.00;99.90
52709;DHT22;38606;52.986;6.980;2023-08-17T03:35:08;16.60;99.90
52709;DHT22;38606;52.986;6.980;2023-08-17T03:37:33;16.60;99.90
52709;DHT22;38606;52.986;6.980;2023-08-17T03:39:59;16.60;99.90
52709;DHT22;38606;52.986;6.980;2023-08-17T03:42:26;16.70;99.90
52709;DHT22;38606;52.986;6.980;2023-08-17T03:44:52;16.40;99.90
52709;DHT22;38606;52.986;6.980;2023-08-17T03:47:18;16.40;99.90
52709;DHT22;38606;52.986;6.980;2023-08-17T03:49:44;16.80;99.90
52709;DHT22;38606;52.986;6.980;2023-08-17T03:52:10;16.50;99.90
52709;DHT22;38606;52.986;6.980;2023-08-17T03:54:36;16.40;99.90
52709;DHT22;38606;52.986;6.980;2023-08-17T03:57:02;16.50;99.90
52709;DHT22;38606;52.986;6.980;2023-08-17T03:59:28;16.60;99.90
52709;DHT22;38606;52.986;6.980;2023-08-17T04:01:54;16.50;99.90
52709;DHT22;38606;52.986;6.980;2023-08-17T04:04:19;16.70;99.90
52709;DHT22;38606;52.986;6.980;2023-08-17T04:06:45;16.70;99.90
52709;DHT22;38606;52.986;6.980;2023-08-17T04:09:11;16.40;99.90
52709;DHT22;38606;52.986;6.980;2023-08-17T04:11:37;16.30;99.90
52709;DHT22;38606;52.986;6.980;2023-08-17T04:14:03;16.60;99.90
52709;DHT22;38606;52.986;6.980;2023-08-17T04:16:29;16.60;99.90
52709;DHT22;38606;52.986;6.980;2023-08-17T04:18:55;16.70;99.90
52709;DHT22;38606;52.986;6.980;2023-08-17T04:21:20;17.10;99.90
52709;DHT22;38606;52.986;6.980;2023-08-17T04:23:46;16.80;99.90
52709;DHT22;38606;52.986;6.980;2023-08-17T04:26:12;16.50;99.90
52709;DHT22;38606;52.986;6.980;2023-08-17T04:28:38;16.60;99.90
52709;DHT22;38606;52.986;6.980;2023-08-17T04:31:04;16.90;99.90
52709;DHT22;38606;52.986;6.980;2023-08-17T04:33:29;17.00;99.90
52709;DHT22;38606;52.986;6.980;2023-08-17T04:35:55;16.80;99.90
52709;DHT22;38606;52.986;6.980;2023-08-17T04:38:21;17.00;99.90
52709;DHT22;38606;52.986;6.980;2023-08-17T04:40:47;17.00;99.90
52709;DHT22;38606;52.986;6.980;2023-08-17T04:43:13;16.30;99.90
52709;DHT22;38606;52.986;6.980;2023-08-17T04:45:39;16.60;99.90
52709;DHT22;38606;52.986;6.980;2023-08-17T04:48:06;16.80;99.90
52709;DHT22;38606;52.986;6.980;2023-08-17T04:50:32;16.80;99.90
52709;DHT22;38606;52.986;6.980;2023-08-17T04:52:57;16.90;99.90
52709;DHT22;38606;52.986;6.980;2023-08-17T04:55:23;16.90;99.90
52709;DHT22;38606;52.986;6.980;2023-08-17T04:57:49;16.80;99.90
52709;DHT22;38606;52.986;6.980;2023-08-17T05:00:15;16.90;99.90
52709;DHT22;38606;52.986;6.980;2023-08-17T05:02:41;17.00;99.90
52709;DHT22;38606;52.986;6.980;2023-08-17T05:05:08;16.70;99.90
52709;DHT22;38606;52.986;6.980;2023-08-17T05:07:34;16.80;99.90
52709;DHT22;38606;52.986;6.980;2023-08-17T05:10:00;15.40;99.90
52709;DHT22;38606;52.986;6.980;2023-08-17T05:12:27;17.00;99.90
52709;DHT22;38606;52.986;6.980;2023-08-17T05:14:52;16.70;99.90
52709;DHT22;38606;52.986;6.980;2023-08-17T05:17:18;16.90;99.90
52709;DHT22;38606;52.986;6.980;2023-08-17T05:19:44;17.00;99.90
52709;DHT22;38606;52.986;6.980;2023-08-17T05:22:11;17.20;99.90
52709;DHT22;38606;52.986;6.980;2023-08-17T05:24:38;16.80;99.90
52709;DHT22;38606;52.986;6.980;2023-08-17T05:27:04;16.60;99.90
52709;DHT22;38606;52.986;6.980;2023-08-17T05:29:30;16.90;99.90
52709;DHT22;38606;52.986;6.980;2023-08-17T05:31:58;16.80;99.90
52709;DHT22;38606;52.986;6.980;2023-08-17T05:34:23;16.60;99.90
52709;DHT22;38606;52.986;6.980;2023-08-17T05:36:49;15.70;99.90
52709;DHT22;38606;52.986;6.980;2023-08-17T05:39:15;16.70;99.90
52709;DHT22;38606;52.986;6.980;2023-08-17T05:41:41;16.90;99.90
52709;DHT22;38606;52.986;6.980;2023-08-17T05:44:07;16.80;99.90
52709;DHT22;38606;52.986;6.980;2023-08-17T05:46:33;17.00;99.90
52709;DHT22;38606;52.986;6.980;2023-08-17T05:49:00;16.70;99.90
52709;DHT22;38606;52.986;6.980;2023-08-17T05:51:25;16.70;99.90
52709;DHT22;38606;52.986;6.980;2023-08-17T05:53:51;16.90;99.90
52709;DHT22;38606;52.986;6.980;2023-08-17T05:56:17;17.30;99.90
52709;DHT22;38606;52.986;6.980;2023-08-17T05:58:42;16.80;99.90
52709;DHT22;38606;52.986;6.980;2023-08-17T06:01:09;17.00;99.90
52709;DHT22;38606;52.986;6.980;2023-08-17T06:03:36;16.90;99.90
52709;DHT22;38606;52.986;6.980;2023-08-17T06:06:06;17.10;99.90
52709;DHT22;38606;52.986;6.980;2023-08-17T06:08:31;15.40;99.90
52709;DHT22;38606;52.986;6.980;2023-08-17T06:10:57;17.00;99.90
52709;DHT22;38606;52.986;6.980;2023-08-17T06:13:23;17.30;99.90
52709;DHT22;38606;52.986;6.980;2023-08-17T06:15:49;17.00;99.90
52709;DHT22;38606;52.986;6.980;2023-08-17T06:18:15;17.20;99.90
52709;DHT22;38606;52.986;6.980;2023-08-17T06:20:40;16.90;99.90
52709;DHT22;38606;52.986;6.980;2023-08-17T06:23:06;17.00;99.90
52709;DHT22;38606;52.986;6.980;2023-08-17T06:25:32;17.10;99.90
52709;DHT22;38606;52.986;6.980;2023-08-17T06:27:58;17.20;99.90
52709;DHT22;38606;52.986;6.980;2023-08-17T06:30:24;17.10;99.90
52709;DHT22;38606;52.986;6.980;2023-08-17T06:32:53;17.20;99.90
52709;DHT22;38606;52.986;6.980;2023-08-17T06:35:18;17.10;99.90
52709;DHT22;38606;52.986;6.980;2023-08-17T06:37:44;17.30;99.90
52709;DHT22;38606;52.986;6.980;2023-08-17T06:40:10;17.20;99.90
52709;DHT22;38606;52.986;6.980;2023-08-17T06:42:39;17.90;99.90
52709;DHT22;38606;52.986;6.980;2023-08-17T06:45:06;17.40;99.90
52709;DHT22;38606;52.986;6.980;2023-08-17T06:47:32;17.60;99.90
52709;DHT22;38606;52.986;6.980;2023-08-17T06:49:57;17.30;99.90
52709;DHT22;38606;52.986;6.980;2023-08-17T06:52:23;17.50;99.90
52709;DHT22;38606;52.986;6.980;2023-08-17T06:54:50;17.30;99.90
52709;DHT22;38606;52.986;6.980;2023-08-17T06:57:15;17.60;99.90
52709;DHT22;38606;52.986;6.980;2023-08-17T06:59:41;17.50;99.90
52709;DHT22;38606;52.986;6.980;2023-08-17T07:02:07;17.50;99.90
52709;DHT22;38606;52.986;6.980;2023-08-17T07:04:33;17.50;99.90
52709;DHT22;38606;52.986;6.980;2023-08-17T07:06:58;17.60;99.90
52709;DHT22;38606;52.986;6.980;2023-08-17T07:09:25;17.70;99.90
52709;DHT22;38606;52.986;6.980;2023-08-17T07:11:50;17.70;99.90
52709;DHT22;38606;52.986;6.980;2023-08-17T07:14:16;17.60;99.90
52709;DHT22;38606;52.986;6.980;2023-08-17T07:16:42;17.50;99.90
52709;DHT22;38606;52.986;6.980;2023-08-17T07:19:07;17.60;99.90
52709;DHT22;38606;52.986;6.980;2023-08-17T07:21:33;17.60;99.90
52709;DHT22;38606;52.986;6.980;2023-08-17T07:24:11;18.00;99.90
52709;DHT22;38606;52.986;6.980;2023-08-17T07:26:37;17.80;99.90
52709;DHT22;38606;52.986;6.980;2023-08-17T07:29:03;18.10;99.90
52709;DHT22;38606;52.986;6.980;2023-08-17T07:31:29;17.70;99.90
52709;DHT22;38606;52.986;6.980;2023-08-17T07:33:55;17.90;99.90
52709;DHT22;38606;52.986;6.980;2023-08-17T07:36:20;17.60;99.90
52709;DHT22;38606;52.986;6.980;2023-08-17T07:38:46;17.60;99.90
52709;DHT22;38606;52.986;6.980;2023-08-17T07:41:12;17.70;99.90
52709;DHT22;38606;52.986;6.980;2023-08-17T07:43:37;18.20;99.90
52709;DHT22;38606;52.986;6.980;2023-08-17T07:46:03;18.20;99.90
52709;DHT22;38606;52.986;6.980;2023-08-17T07:48:29;17.40;99.90
52709;DHT22;38606;52.986;6.980;2023-08-17T07:50:59;18.10;99.90
52709;DHT22;38606;52.986;6.980;2023-08-17T07:53:24;18.10;99.90
52709;DHT22;38606;52.986;6.980;2023-08-17T07:55:50;18.30;99.90
52709;DHT22;38606;52.986;6.980;2023-08-17T07:58:16;18.10;99.90
52709;DHT22;38606;52.986;6.980;2023-08-17T08:00:42;18.20;99.90
52709;DHT22;38606;52.986;6.980;2023-08-17T08:03:08;18.10;99.90
52709;DHT22;38606;52.986;6.980;2023-08-17T08:05:34;18.30;99.90
52709;DHT22;38606;52.986;6.980;2023-08-17T08:08:00;18.50;99.90
52709;DHT22;38606;52.986;6.980;2023-08-17T08:10:27;18.30;99.90
52709;DHT22;38606;52.986;6.980;2023-08-17T08:12:53;18.00;99.90
52709;DHT22;38606;52.986;6.980;2023-08-17T08:15:19;18.10;99.90
52709;DHT22;38606;52.986;6.980;2023-08-17T08:17:45;18.10;99.90
52709;DHT22;38606;52.986;6.980;2023-08-17T08:20:10;18.60;99.90
52709;DHT22;38606;52.986;6.980;2023-08-17T08:22:36;18.10;99.90
52709;DHT22;38606;52.986;6.980;2023-08-17T08:25:02;18.20;99.90
52709;DHT22;38606;52.986;6.980;2023-08-17T08:27:28;18.40;99.90
52709;DHT22;38606;52.986;6.980;2023-08-17T08:29:53;18.20;99.90
52709;DHT22;38606;52.986;6.980;2023-08-17T08:32:19;18.80;99.90
52709;DHT22;38606;52.986;6.980;2023-08-17T08:34:45;18.30;99.90
52709;DHT22;38606;52.986;6.980;2023-08-17T08:37:11;18.40;99.90
52709;DHT22;38606;52.986;6.980;2023-08-17T08:39:50;18.40;99.90
52709;DHT22;38606;52.986;6.980;2023-08-17T08:42:19;18.70;99.90
52709;DHT22;38606;52.986;6.980;2023-08-17T08:44:45;18.70;99.90
52709;DHT22;38606;52.986;6.980;2023-08-17T08:47:12;18.50;99.90
52709;DHT22;38606;52.986;6.980;2023-08-17T08:49:39;18.50;99.90
52709;DHT22;38606;52.986;6.980;2023-08-17T08:52:07;19.00;99.90
52709;DHT22;38606;52.986;6.980;2023-08-17T08:54:35;18.60;99.90
52709;DHT22;38606;52.986;6.980;2023-08-17T08:57:12;18.80;99.90
52709;DHT22;38606;52.986;6.980;2023-08-17T08:59:39;18.70;99.90
52709;DHT22;38606;52.986;6.980;2023-08-17T09:02:14;18.70;99.90
52709;DHT22;38606;52.986;6.980;2023-08-17T09:04:44;18.70;99.90
52709;DHT22;38606;52.986;6.980;2023-08-17T09:07:12;18.80;99.90
52709;DHT22;38606;52.986;6.980;2023-08-17T09:09:40;18.10;99.90
52709;DHT22;38606;52.986;6.980;2023-08-17T09:12:08;18.70;99.90
52709;DHT22;38606;52.986;6.980;2023-08-17T09:14:35;18.80;99.90
52709;DHT22;38606;52.986;6.980;2023-08-17T09:17:03;18.80;99.90
52709;DHT22;38606;52.986;6.980;2023-08-17T09:19:31;19.90;99.90
52709;DHT22;38606;52.986;6.980;2023-08-17T09:21:57;18.80;99.90
52709;DHT22;38606;52.986;6.980;2023-08-17T09:24:23;18.90;99.90
52709;DHT22;38606;52.986;6.980;2023-08-17T09:26:49;18.90;99.90
52709;DHT22;38606;52.986;6.980;2023-08-17T09:29:19;19.20;99.90
52709;DHT22;38606;52.986;6.980;2023-08-17T09:31:46;19.10;99.90
52709;DHT22;38606;52.986;6.980;2023-08-17T09:34:12;19.10;99.90
52709;DHT22;38606;52.986;6.980;2023-08-17T09:36:40;19.30;99.90
52709;DHT22;38606;52.986;6.980;2023-08-17T09:39:06;20.60;99.90
52709;DHT22;38606;52.986;6.980;2023-08-17T09:41:38;20.90;99.90
52709;DHT22;38606;52.986;6.980;2023-08-17T09:44:07;19.50;99.90
52709;DHT22;38606;52.986;6.980;2023-08-17T09:46:32;19.50;99.90
52709;DHT22;38606;52.986;6.980;2023-08-17T09:48:59;19.70;99.90
52709;DHT22;38606;52.986;6.980;2023-08-17T09:51:27;19.60;99.90
52709;DHT22;38606;52.986;6.980;2023-08-17T09:53:53;19.70;99.90
52709;DHT22;38606;52.986;6.980;2023-08-17T09:56:21;20.00;99.90
52709;DHT22;38606;52.986;6.980;2023-08-17T09:58:49;19.80;99.90
52709;DHT22;38606;52.986;6.980;2023-08-17T10:01:15;20.00;99.90
52709;DHT22;38606;52.986;6.980;2023-08-17T10:03:43;20.30;99.90
52709;DHT22;38606;52.986;6.980;2023-08-17T10:06:13;20.60;99.90
52709;DHT22;38606;52.986;6.980;2023-08-17T10:08:45;20.40;99.90
52709;DHT22;38606;52.986;6.980;2023-08-17T10:11:13;20.30;99.90
52709;DHT22;38606;52.986;6.980;2023-08-17T10:13:46;20.40;99.90
52709;DHT22;38606;52.986;6.980;2023-08-17T10:16:26;20.50;99.90
52709;DHT22;38606;52.986;6.980;2023-08-17T10:21:54;20.30;99.90
52709;DHT22;38606;52.986;6.980;2023-08-17T10:24:24;20.20;99.90
52709;DHT22;38606;52.986;6.980;2023-08-17T10:26:50;20.20;99.90
52709;DHT22;38606;52.986;6.980;2023-08-17T10:29:17;20.20;99.90
52709;DHT22;38606;52.986;6.980;2023-08-17T10:31:47;20.30;99.90
52709;DHT22;38606;52.986;6.980;2023-08-17T10:34:14;20.00;99.90
52709;DHT22;38606;52.986;6.980;2023-08-17T10:36:44;20.30;99.90
52709;DHT22;38606;52.986;6.980;2023-08-17T10:39:23;20.30;99.90
52709;DHT22;38606;52.986;6.980;2023-08-17T10:41:50;20.00;99.90
52709;DHT22;38606;52.986;6.980;2023-08-17T10:44:18;20.40;99.90
52709;DHT22;38606;52.986;6.980;2023-08-17T10:47:25;20.10;99.90
52709;DHT22;38606;52.986;6.980;2023-08-17T10:49:56;20.20;99.90
52709;DHT22;38606;52.986;6.980;2023-08-17T10:54:52;20.50;99.90
52709;DHT22;38606;52.986;6.980;2023-08-17T10:57:35;20.70;99.90
52709;DHT22;38606;52.986;6.980;2023-08-17T11:00:22;20.60;99.90
52709;DHT22;38606;52.986;6.980;2023-08-17T11:03:05;20.00;99.90
52709;DHT22;38606;52.986;6.980;2023-08-17T11:08:20;20.70;99.90
52709;DHT22;38606;52.986;6.980;2023-08-17T11:11:02;20.60;99.90
52709;DHT22;38606;52.986;6.980;2023-08-17T11:13:34;20.40;99.90
52709;DHT22;38606;52.986;6.980;2023-08-17T11:16:01;20.40;99.90
52709;DHT22;38606;52.986;6.980;2023-08-17T11:18:27;20.80;99.90
52709;DHT22;38606;52.986;6.980;2023-08-17T11:20:54;21.00;99.90
52709;DHT22;38606;52.986;6.980;2023-08-17T11:23:20;20.80;99.90
52709;DHT22;38606;52.986;6.980;2023-08-17T11:25:46;20.70;99.90
52709;DHT22;38606;52.986;6.980;2023-08-17T11:28:12;20.90;99.90
52709;DHT22;38606;52.986;6.980;2023-08-17T11:30:40;20.70;99.90
52709;DHT22;38606;52.986;6.980;2023-08-17T11:33:06;20.80;99.90
52709;DHT22;38606;52.986;6.980;2023-08-17T11:35:33;20.90;99.90
52709;DHT22;38606;52.986;6.980;2023-08-17T11:37:59;20.70;99.90
52709;DHT22;38606;52.986;6.980;2023-08-17T11:40:27;20.80;99.90
52709;DHT22;38606;52.986;6.980;2023-08-17T11:42:53;21.30;99.90
52709;DHT22;38606;52.986;6.980;2023-08-17T11:45:19;21.20;99.90
52709;DHT22;38606;52.986;6.980;2023-08-17T11:47:46;21.20;99.90
52709;DHT22;38606;52.986;6.980;2023-08-17T11:50:13;21.30;99.90
52709;DHT22;38606;52.986;6.980;2023-08-17T11:52:39;21.50;99.90
52709;DHT22;38606;52.986;6.980;2023-08-17T11:55:07;21.10;99.90
52709;DHT22;38606;52.986;6.980;2023-08-17T11:57:36;21.00;99.90
52709;DHT22;38606;52.986;6.980;2023-08-17T12:00:03;21.10;99.90
52709;DHT22;38606;52.986;6.980;2023-08-17T12:02:31;21.10;99.90
52709;DHT22;38606;52.986;6.980;2023-08-17T12:05:03;21.20;99.90
52709;DHT22;38606;52.986;6.980;2023-08-17T12:07:31;21.50;99.90
52709;DHT22;38606;52.986;6.980;2023-08-17T12:09:57;21.30;99.90
52709;DHT22;38606;52.986;6.980;2023-08-17T12:12:23;20.90;99.90
52709;DHT22;38606;52.986;6.980;2023-08-17T12:14:49;21.20;99.90
52709;DHT22;38606;52.986;6.980;2023-08-17T12:17:18;21.10;99.90
52709;DHT22;38606;52.986;6.980;2023-08-17T12:19:48;21.40;99.90
52709;DHT22;38606;52.986;6.980;2023-08-17T12:22:14;21.30;99.90
52709;DHT22;38606;52.986;6.980;2023-08-17T12:24:40;21.30;99.90
52709;DHT22;38606;52.986;6.980;2023-08-17T12:27:06;21.20;99.90
52709;DHT22;38606;52.986;6.980;2023-08-17T12:29:32;21.20;99.90
52709;DHT22;38606;52.986;6.980;2023-08-17T12:31:58;21.20;99.90
52709;DHT22;38606;52.986;6.980;2023-08-17T12:34:25;21.30;99.90
52709;DHT22;38606;52.986;6.980;2023-08-17T12:36:50;21.40;99.90
52709;DHT22;38606;52.986;6.980;2023-08-17T12:39:16;21.20;99.90
52709;DHT22;38606;52.986;6.980;2023-08-17T12:41:42;21.30;99.90
52709;DHT22;38606;52.986;6.980;2023-08-17T12:44:11;21.60;99.90
52709;DHT22;38606;52.986;6.980;2023-08-17T12:46:40;21.60;99.90
52709;DHT22;38606;52.986;6.980;2023-08-17T12:49:06;21.60;99.90
52709;DHT22;38606;52.986;6.980;2023-08-17T12:51:32;21.50;99.90
52709;DHT22;38606;52.986;6.980;2023-08-17T12:53:58;21.80;99.90
52709;DHT22;38606;52.986;6.980;2023-08-17T12:56:23;21.50;99.90
52709;DHT22;38606;52.986;6.980;2023-08-17T12:58:49;21.50;99.90
52709;DHT22;38606;52.986;6.980;2023-08-17T13:01:15;21.40;99.90
52709;DHT22;38606;52.986;6.980;2023-08-17T13:03:41;22.00;99.90
52709;DHT22;38606;52.986;6.980;2023-08-17T13:06:07;21.80;99.90
52709;DHT22;38606;52.986;6.980;2023-08-17T13:08:33;21.60;99.90
52709;DHT22;38606;52.986;6.980;2023-08-17T13:11:00;21.70;99.90
52709;DHT22;38606;52.986;6.980;2023-08-17T13:13:25;21.40;99.90
52709;DHT22;38606;52.986;6.980;2023-08-17T13:15:51;21.50;99.90
52709;DHT22;38606;52.986;6.980;2023-08-17T13:18:17;21.50;99.90
52709;DHT22;38606;52.986;6.980;2023-08-17T13:20:43;21.40;99.90
52709;DHT22;38606;52.986;6.980;2023-08-17T13:23:10;21.50;99.90
52709;DHT22;38606;52.986;6.980;2023-08-17T13:25:36;21.40;99.90
52709;DHT22;38606;52.986;6.980;2023-08-17T13:28:02;21.20;99.90
52709;DHT22;38606;52.986;6.980;2023-08-17T13:30:27;21.30;99.90
52709;DHT22;38606;52.986;6.980;2023-08-17T13:32:53;21.20;99.90
52709;DHT22;38606;52.986;6.980;2023-08-17T13:35:19;21.40;99.90
52709;DHT22;38606;52.986;6.980;2023-08-17T13:37:44;21.20;99.90
52709;DHT22;38606;52.986;6.980;2023-08-17T13:40:11;21.30;99.90
52709;DHT22;38606;52.986;6.980;2023-08-17T13:42:36;20.90;99.90
52709;DHT22;38606;52.986;6.980;2023-08-17T13:45:03;21.00;99.90
52709;DHT22;38606;52.986;6.980;2023-08-17T13:47:29;21.20;99.90
52709;DHT22;38606;52.986;6.980;2023-08-17T13:49:54;21.00;99.90
52709;DHT22;38606;52.986;6.980;2023-08-17T13:52:21;20.80;99.90
52709;DHT22;38606;52.986;6.980;2023-08-17T13:54:48;21.10;99.90
52709;DHT22;38606;52.986;6.980;2023-08-17T13:57:13;21.10;99.90
52709;DHT22;38606;52.986;6.980;2023-08-17T13:59:39;20.90;99.90
52709;DHT22;38606;52.986;6.980;2023-08-17T14:02:05;20.70;99.90
52709;DHT22;38606;52.986;6.980;2023-08-17T14:04:31;20.80;99.90
52709;DHT22;38606;52.986;6.980;2023-08-17T14:06:57;20.60;99.90
52709;DHT22;38606;52.986;6.980;2023-08-17T14:09:23;20.50;99.90
52709;DHT22;38606;52.986;6.980;2023-08-17T14:11:48;20.80;99.90
52709;DHT22;38606;52.986;6.980;2023-08-17T14:14:14;20.60;99.90
52709;DHT22;38606;52.986;6.980;2023-08-17T14:16:40;20.90;99.90
52709;DHT22;38606;52.986;6.980;2023-08-17T14:19:05;20.60;99.90
52709;DHT22;38606;52.986;6.980;2023-08-17T14:21:31;20.90;99.90
52709;DHT22;38606;52.986;6.980;2023-08-17T14:23:57;20.80;99.90
52709;DHT22;38606;52.986;6.980;2023-08-17T14:26:22;20.50;99.90
52709;DHT22;38606;52.986;6.980;2023-08-17T14:28:48;20.80;99.90
52709;DHT22;38606;52.986;6.980;2023-08-17T14:31:14;21.00;99.90
52709;DHT22;38606;52.986;6.980;2023-08-17T14:33:43;21.00;99.90
52709;DHT22;38606;52.986;6.980;2023-08-17T14:36:10;20.90;99.90
52709;DHT22;38606;52.986;6.980;2023-08-17T14:38:36;20.80;99.90
52709;DHT22;38606;52.986;6.980;2023-08-17T14:41:01;20.80;99.90
52709;DHT22;38606;52.986;6.980;2023-08-17T14:43:30;21.00;99.90
52709;DHT22;38606;52.986;6.980;2023-08-17T14:45:56;20.70;99.90
52709;DHT22;38606;52.986;6.980;2023-08-17T14:48:21;21.10;99.90
52709;DHT22;38606;52.986;6.980;2023-08-17T14:50:47;20.90;99.90
52709;DHT22;38606;52.986;6.980;2023-08-17T14:53:13;21.10;99.90
52709;DHT22;38606;52.986;6.980;2023-08-17T14:55:38;20.80;99.90
52709;DHT22;38606;52.986;6.980;2023-08-17T14:58:04;20.70;99.90
52709;DHT22;38606;52.986;6.980;2023-08-17T15:00:30;21.10;99.90
52709;DHT22;38606;52.986;6.980;2023-08-17T15:02:57;21.20;99.90
52709;DHT22;38606;52.986;6.980;2023-08-17T15:05:23;20.90;99.90
52709;DHT22;38606;52.986;6.980;2023-08-17T15:07:49;21.10;99.90
52709;DHT22;38606;52.986;6.980;2023-08-17T15:10:15;20.60;99.90
52709;DHT22;38606;52.986;6.980;2023-08-17T15:12:41;20.70;99.90
52709;DHT22;38606;52.986;6.980;2023-08-17T15:15:07;20.90;99.90
52709;DHT22;38606;52.986;6.980;2023-08-17T15:17:33;20.80;99.90
52709;DHT22;38606;52.986;6.980;2023-08-17T15:20:02;20.90;99.90
52709;DHT22;38606;52.986;6.980;2023-08-17T15:22:28;20.70;99.90
52709;DHT22;38606;52.986;6.980;2023-08-17T15:24:54;20.80;99.90
52709;DHT22;38606;52.986;6.980;2023-08-17T15:27:20;20.80;99.90
52709;DHT22;38606;52.986;6.980;2023-08-17T15:29:45;21.00;99.90
52709;DHT22;38606;52.986;6.980;2023-08-17T15:32:11;20.70;99.90
52709;DHT22;38606;52.986;6.980;2023-08-17T15:34:37;20.60;99.90
52709;DHT22;38606;52.986;6.980;2023-08-17T15:37:03;20.50;99.90
52709;DHT22;38606;52.986;6.980;2023-08-17T15:39:29;20.70;99.90
52709;DHT22;38606;52.986;6.980;2023-08-17T15:41:56;20.70;99.90
52709;DHT22;38606;52.986;6.980;2023-08-17T15:44:21;20.50;99.90